Terminal Aerodrome Forecast
Issued by NWS

Home | Current Version | Previous Version | Graphics & Text | Print | Product List | Glossary On
Versions: 1 2 3 4 5 6 7 8 9 10 11 12 13 14 15 16
000
FTUS43 KTOP 202300
TAFMHK
TAF
KMHK 202320Z 2100/2124 VRB06KT P6SM BKN050 BKN100
     FM210100 34007KT P6SM SKC
     FM211800 36010G18KT P6SM SKC=

USA.gov is the U.S. government's official web portal to all federal, state and local government web resources and services.